Time;durP1;ratioP1;P1;durP2;ratioP2;P2;SDS_P1;SDS_P2;PMS_P1;PMS_P2;Temp;Humidity;BMP_temperature;BMP_pressure;BME280_temperature;BME280_humidity;BME280_pressure;Samples;Min_cycle;Max_cycle;Signal;HPM_P1;HPM_P2
2022/06/08 00:00:44;;;;;;;;;;;;;;;15.37;79.45;100709.66;5020786;28;19932;-79
2022/06/08 00:03:11;;;;;;;;;;;;;;;15.37;79.19;100709.66;5028259;28;19928;-79
2022/06/08 00:05:37;;;;;;;;;;;;;;;15.36;79.19;100711.44;5025399;28;19932;-79
2022/06/08 00:08:02;;;;;;;;;;;;;;;15.29;79.19;100714.38;5016813;28;19929;-79
2022/06/08 00:10:28;;;;;;;;;;;;;;;15.21;79.18;100716.47;5022104;28;20298;-79
2022/06/08 00:12:53;;;;;;;;;;;;;;;15.25;79.22;100715.41;5025137;28;20436;-77
2022/06/08 00:15:19;;;;;;;;;;;;;;;15.22;79.10;100708.53;5031209;28;19925;-81
2022/06/08 00:17:44;;;;;;;;;;;;;;;15.30;78.53;100710.84;5033958;28;19929;-82
2022/06/08 00:20:10;;;;;;;;;;;;;;;15.26;78.23;100720.59;5012450;28;20502;-82
2022/06/08 00:22:36;;;;;;;;;;;;;;;15.25;78.50;100697.94;5027913;28;19948;-79
2022/06/08 00:25:03;;;;;;;;;;;;;;;15.24;78.74;100701.50;5022021;28;20058;-79
2022/06/08 00:27:28;;;;;;;;;;;;;;;15.26;78.67;100710.13;5021262;28;19929;-77
2022/06/08 00:29:54;;;;;;;;;;;;;;;15.26;78.56;100704.91;5025639;28;19925;-77
2022/06/08 00:32:19;;;;;;;;;;;;;;;15.26;78.58;100698.81;5024367;28;19921;-75
2022/06/08 00:34:44;;;;;;;;;;;;;;;15.29;78.79;100696.06;5033111;28;20341;-82
2022/06/08 00:37:10;;;;;;;;;;;;;;;15.24;78.75;100698.03;5024122;28;19940;-82
2022/06/08 00:39:35;;;;;;;;;;;;;;;15.23;78.74;100696.31;5018804;28;19968;-81
2022/06/08 00:42:03;;;;;;;;;;;;;;;15.27;78.60;100690.06;5024241;28;19923;-75
2022/06/08 00:44:39;;;;;;;;;;;;;;;15.27;78.76;100690.88;5026973;28;20432;-75
2022/06/08 00:47:07;;;;;;;;;;;;;;;15.18;78.87;100688.66;5023153;28;19921;-76
2022/06/08 00:49:52;;;;;;;;;;;;;;;15.21;78.84;100688.53;5024494;28;19925;-79
2022/06/08 00:52:17;;;;;;;;;;;;;;;15.14;79.14;100696.69;5022414;28;19956;-75
2022/06/08 00:54:46;;;;;;;;;;;;;;;15.23;78.61;100688.47;5026723;28;19925;-76
2022/06/08 00:57:14;;;;;;;;;;;;;;;15.26;78.60;100688.34;5021029;28;20010;-82
2022/06/08 00:59:45;;;;;;;;;;;;;;;15.24;78.82;100687.56;5042347;28;19924;-82
2022/06/08 01:02:10;;;;;;;;;;;;;;;15.24;78.50;100682.31;5040287;28;19928;-76
2022/06/08 01:04:36;;;;;;;;;;;;;;;15.20;78.54;100678.97;5049187;28;19944;-82
2022/06/08 01:07:01;;;;;;;;;;;;;;;15.17;78.42;100676.50;5040005;28;19921;-82
2022/06/08 01:09:26;;;;;;;;;;;;;;;15.20;78.18;100676.38;5053251;28;20314;-81
2022/06/08 01:11:53;;;;;;;;;;;;;;;15.21;78.47;100669.38;5042404;28;19951;-82
2022/06/08 01:14:19;;;;;;;;;;;;;;;15.23;78.30;100667.53;5039175;28;19928;-82
2022/06/08 01:16:50;;;;;;;;;;;;;;;15.22;78.24;100664.06;5038755;28;19921;-79
2022/06/08 01:19:16;;;;;;;;;;;;;;;15.22;78.29;100664.06;5038035;28;19947;-79
2022/06/08 01:21:41;;;;;;;;;;;;;;;15.17;78.65;100663.41;5038057;28;20434;-79
2022/06/08 01:24:08;;;;;;;;;;;;;;;15.20;78.73;100658.03;5042295;28;19928;-79
2022/06/08 01:26:48;;;;;;;;;;;;;;;15.18;78.65;100653.78;5042058;28;19921;-79
2022/06/08 01:29:16;;;;;;;;;;;;;;;15.17;79.04;100655.56;5036184;28;19928;-82
2022/06/08 01:32:00;;;;;;;;;;;;;;;15.16;79.15;100648.59;5040361;28;19925;-79
2022/06/08 01:34:46;;;;;;;;;;;;;;;15.20;78.63;100646.72;5039830;28;19971;-79
2022/06/08 01:37:14;;;;;;;;;;;;;;;15.19;78.47;100640.63;5008170;28;19955;-80
2022/06/08 01:39:39;;;;;;;;;;;;;;;15.18;78.53;100638.09;5044726;28;20575;-76
2022/06/08 01:42:23;;;;;;;;;;;;;;;15.19;78.40;100632.78;5048666;28;20019;-79
2022/06/08 01:47:51;;;;;;;;;;;;;;;15.06;78.60;100634.22;5040770;28;19933;-75
2022/06/08 01:50:35;;;;;;;;;;;;;;;14.96;78.88;100632.03;5059157;28;19928;-75
2022/06/08 01:53:19;;;;;;;;;;;;;;;15.00;78.85;100629.25;5042795;28;19921;-75
2022/06/08 01:56:10;;;;;;;;;;;;;;;15.06;79.04;100630.75;5024963;28;19925;-76
2022/06/08 01:58:39;;;;;;;;;;;;;;;15.13;78.85;100632.19;5024741;28;19935;-77
2022/06/08 02:01:16;;;;;;;;;;;;;;;15.16;78.60;100626.81;5044365;28;19924;-79
2022/06/08 02:03:48;;;;;;;;;;;;;;;15.10;78.70;100620.09;5036385;28;20397;-79
2022/06/08 02:06:45;;;;;;;;;;;;;;;15.07;78.25;100614.13;5023469;28;19921;-79
2022/06/08 02:09:16;;;;;;;;;;;;;;;15.14;78.23;100605.97;5020223;28;19925;-79
2022/06/08 02:11:55;;;;;;;;;;;;;;;15.09;78.37;100602.72;5021917;28;19925;-79
2022/06/08 02:14:23;;;;;;;;;;;;;;;15.08;77.93;100597.53;5041438;28;20011;-82
2022/06/08 02:17:03;;;;;;;;;;;;;;;15.08;78.15;100592.28;5025477;28;19931;-82
2022/06/08 02:19:35;;;;;;;;;;;;;;;15.05;77.83;100588.03;5040789;28;19928;-75
2022/06/08 02:22:05;;;;;;;;;;;;;;;15.01;77.94;100591.69;5041260;28;19967;-79
2022/06/08 02:24:37;;;;;;;;;;;;;;;15.00;77.73;100595.25;5045727;28;19921;-75
2022/06/08 02:27:10;;;;;;;;;;;;;;;15.00;77.90;100591.78;5045995;28;20411;-75
2022/06/08 02:29:37;;;;;;;;;;;;;;;14.94;78.06;100597.25;5044016;28;20442;-75
2022/06/08 02:34:28;;;;;;;;;;;;;;;14.94;77.79;100592.03;5048561;28;19925;-75
2022/06/08 02:35:01;;;;;;;;;;;;;;;14.96;77.71;100593.66;5043991;28;19925;-76
2022/06/08 02:37:29;;;;;;;;;;;;;;;14.93;77.34;100591.16;5039229;28;19929;-75
2022/06/08 02:39:54;;;;;;;;;;;;;;;14.79;77.74;100586.53;5042379;28;19931;-75
2022/06/08 02:42:23;;;;;;;;;;;;;;;14.89;77.22;100586.97;5042900;28;19920;-76
2022/06/08 02:44:50;;;;;;;;;;;;;;;14.81;77.58;100589.06;5044090;28;19925;-75
2022/06/08 02:47:30;;;;;;;;;;;;;;;14.85;77.26;100581.03;5040695;28;19925;-75
2022/06/08 02:49:55;;;;;;;;;;;;;;;14.85;77.35;100582.81;5053635;28;19931;-75
2022/06/08 02:52:23;;;;;;;;;;;;;;;14.83;77.39;100588.06;5041098;28;19920;-76
2022/06/08 02:54:49;;;;;;;;;;;;;;;14.89;76.92;100575.69;5062949;28;20313;-77
2022/06/08 02:57:14;;;;;;;;;;;;;;;14.85;77.43;100569.72;5045837;28;20012;-78
2022/06/08 02:59:52;;;;;;;;;;;;;;;14.81;77.16;100571.59;5047534;28;22828;-77
2022/06/08 03:02:24;;;;;;;;;;;;;;;14.79;77.65;100569.97;5046072;28;19947;-77
2022/06/08 03:05:00;;;;;;;;;;;;;;;14.84;77.32;100568.88;5048075;28;19929;-76
2022/06/08 03:07:29;;;;;;;;;;;;;;;14.85;77.36;100569.72;5037518;28;19929;-77
2022/06/08 03:09:56;;;;;;;;;;;;;;;14.85;77.29;100564.50;5040970;28;19944;-77
2022/06/08 03:12:32;;;;;;;;;;;;;;;14.90;77.32;100562.53;5041987;28;19938;-77
2022/06/08 03:14:59;;;;;;;;;;;;;;;14.93;77.38;100561.53;5042626;28;19966;-77
2022/06/08 03:17:26;;;;;;;;;;;;;;;14.95;77.39;100557.13;5036577;28;19925;-79
2022/06/08 03:19:51;;;;;;;;;;;;;;;14.95;77.38;100555.31;5041130;28;20538;-77
2022/06/08 03:22:17;;;;;;;;;;;;;;;14.98;77.28;100565.66;5040843;28;19925;-77
2022/06/08 03:24:42;;;;;;;;;;;;;;;14.94;77.35;100564.09;5055199;28;20450;-77
2022/06/08 03:27:08;;;;;;;;;;;;;;;14.88;77.96;100564.38;5046137;28;19933;-77
2022/06/08 03:29:33;;;;;;;;;;;;;;;14.92;77.83;100565.91;5042245;28;20365;-77
2022/06/08 03:31:59;;;;;;;;;;;;;;;14.82;78.25;100559.38;5030972;28;20532;-77
2022/06/08 03:34:24;;;;;;;;;;;;;;;14.90;78.31;100562.53;5045511;28;19928;-77
2022/06/08 03:36:50;;;;;;;;;;;;;;;14.92;78.04;100565.09;5037511;28;19952;-79
2022/06/08 03:39:16;;;;;;;;;;;;;;;14.96;78.06;100564.88;5039400;28;19924;-79
2022/06/08 03:41:41;;;;;;;;;;;;;;;14.99;78.27;100564.75;5040624;28;20453;-79
2022/06/08 03:44:07;;;;;;;;;;;;;;;15.00;78.25;100569.09;5040877;28;20660;-79
2022/06/08 03:46:35;;;;;;;;;;;;;;;14.97;78.34;100570.97;5039073;28;19996;-79
2022/06/08 03:49:01;;;;;;;;;;;;;;;15.02;78.67;100571.63;5024848;28;19928;-79
2022/06/08 03:51:27;;;;;;;;;;;;;;;15.01;78.41;100572.53;5045785;28;19916;-77
2022/06/08 03:53:55;;;;;;;;;;;;;;;15.00;78.08;100560.38;5039042;28;20023;-77
2022/06/08 03:56:23;;;;;;;;;;;;;;;15.05;78.34;100568.88;5045686;28;20020;-82
2022/06/08 03:58:49;;;;;;;;;;;;;;;15.05;78.37;100566.25;5041325;28;20349;-75
2022/06/08 04:01:14;;;;;;;;;;;;;;;14.94;78.74;100569.34;5043612;28;19963;-75
2022/06/08 04:03:40;;;;;;;;;;;;;;;14.98;78.54;100562.22;5043390;28;19929;-78
2022/06/08 04:06:05;;;;;;;;;;;;;;;14.99;78.58;100575.22;5050122;28;20472;-75
2022/06/08 04:08:31;;;;;;;;;;;;;;;14.98;78.62;100568.28;5048082;28;19963;-77
2022/06/08 04:10:57;;;;;;;;;;;;;;;14.99;78.63;100562.13;5023930;28;19970;-77
2022/06/08 04:13:22;;;;;;;;;;;;;;;15.03;78.48;100560.25;5058633;28;20373;-77
2022/06/08 04:15:47;;;;;;;;;;;;;;;15.06;78.33;100557.50;5028503;28;20003;-77
2022/06/08 04:18:14;;;;;;;;;;;;;;;14.99;78.67;100569.13;5042279;28;19928;-79
2022/06/08 04:20:41;;;;;;;;;;;;;;;14.99;78.65;100561.28;5042608;28;19925;-79
2022/06/08 04:23:07;;;;;;;;;;;;;;;15.05;78.19;100564.50;5034323;28;19932;-79
2022/06/08 04:25:32;;;;;;;;;;;;;;;15.04;78.21;100568.00;5025320;28;19924;-79
2022/06/08 04:27:58;;;;;;;;;;;;;;;15.05;78.29;100568.88;5045348;28;19981;-77
2022/06/08 04:30:23;;;;;;;;;;;;;;;15.05;78.52;100559.25;5040580;28;19996;-77
2022/06/08 04:32:49;;;;;;;;;;;;;;;15.05;78.41;100561.03;5045951;28;19924;-77
2022/06/08 04:35:15;;;;;;;;;;;;;;;15.04;78.36;100562.78;5036689;28;20369;-77
2022/06/08 04:37:40;;;;;;;;;;;;;;;15.06;78.63;100562.75;5043152;28;20370;-77
2022/06/08 04:40:07;;;;;;;;;;;;;;;15.06;78.37;100553.13;5021244;28;19927;-77
2022/06/08 04:42:32;;;;;;;;;;;;;;;15.00;78.72;100552.53;5029452;28;19928;-77
2022/06/08 04:44:58;;;;;;;;;;;;;;;15.01;78.80;100552.44;5053410;28;19985;-77
2022/06/08 04:47:23;;;;;;;;;;;;;;;15.05;78.72;100548.81;5033249;28;20028;-77
2022/06/08 04:49:48;;;;;;;;;;;;;;;15.07;78.19;100546.09;5030518;28;19948;-77
2022/06/08 04:52:14;;;;;;;;;;;;;;;15.05;78.27;100540.09;5044060;28;20573;-77
2022/06/08 04:54:39;;;;;;;;;;;;;;;15.12;78.24;100531.94;5039755;28;19979;-77
2022/06/08 04:57:04;;;;;;;;;;;;;;;15.18;77.90;100530.81;5033280;28;20460;-79
2022/06/08 04:59:30;;;;;;;;;;;;;;;15.17;78.45;100531.72;5049241;28;19924;-79
2022/06/08 05:01:55;;;;;;;;;;;;;;;15.19;78.66;100520.25;5038388;28;20063;-77
2022/06/08 05:04:21;;;;;;;;;;;;;;;15.17;78.95;100536.94;5033969;28;19975;-75
2022/06/08 05:06:47;;;;;;;;;;;;;;;15.21;79.39;100528.06;5043637;28;19952;-76
2022/06/08 05:09:13;;;;;;;;;;;;;;;15.21;78.88;100522.84;5032441;28;19932;-82
2022/06/08 05:11:38;;;;;;;;;;;;;;;15.24;79.12;100523.56;5037147;28;19928;-75
2022/06/08 05:14:03;;;;;;;;;;;;;;;15.28;79.18;100525.09;5043118;28;19921;-75
2022/06/08 05:16:29;;;;;;;;;;;;;;;15.28;79.30;100519.00;5036692;28;19929;-75
2022/06/08 05:18:54;;;;;;;;;;;;;;;15.32;78.86;100517.97;5026656;28;20025;-76
2022/06/08 05:21:20;;;;;;;;;;;;;;;15.34;79.33;100516.97;5033420;28;20298;-76
2022/06/08 05:23:46;;;;;;;;;;;;;;;15.36;79.36;100515.13;5024889;28;19984;-75
2022/06/08 05:26:12;;;;;;;;;;;;;;;15.33;79.00;100511.81;5042046;28;20381;-75
2022/06/08 05:28:38;;;;;;;;;;;;;;;15.37;79.65;100511.59;5044253;28;19929;-79
2022/06/08 05:31:03;;;;;;;;;;;;;;;15.37;79.00;100515.97;5039294;28;20010;-79
2022/06/08 05:33:29;;;;;;;;;;;;;;;15.40;79.68;100515.84;5038565;28;19925;-79
2022/06/08 05:35:55;;;;;;;;;;;;;;;15.40;79.69;100513.22;5048157;28;20639;-79
2022/06/08 05:38:20;;;;;;;;;;;;;;;15.41;79.26;100509.72;5038333;28;20318;-79
2022/06/08 05:40:45;;;;;;;;;;;;;;;15.42;79.73;100507.00;5048329;28;20019;-79
2022/06/08 05:43:12;;;;;;;;;;;;;;;15.45;79.63;100505.19;5043880;28;19921;-82
2022/06/08 05:45:39;;;;;;;;;;;;;;;15.47;78.23;100505.97;5045874;28;19964;-82
2022/06/08 05:48:04;;;;;;;;;;;;;;;15.48;79.25;100505.91;5033654;28;19916;-77
2022/06/08 05:50:30;;;;;;;;;;;;;;;15.49;79.39;100496.25;5059280;28;19924;-77
2022/06/08 05:52:55;;;;;;;;;;;;;;;15.48;79.26;100489.34;5045524;28;19929;-77
2022/06/08 05:55:22;;;;;;;;;;;;;;;15.54;79.60;100484.66;5040193;28;19921;-77
2022/06/08 05:57:51;;;;;;;;;;;;;;;15.54;78.75;100474.19;5045213;28;19971;-76
2022/06/08 06:00:18;;;;;;;;;;;;;;;15.57;79.65;100471.41;5029520;28;19982;-76
2022/06/08 06:02:43;;;;;;;;;;;;;;;15.56;78.74;100476.75;5045738;28;19927;-81
2022/06/08 06:05:09;;;;;;;;;;;;;;;15.64;78.44;100475.47;5046223;28;19920;-82
2022/06/08 06:07:35;;;;;;;;;;;;;;;15.62;78.62;100468.59;5044434;28;19928;-77
2022/06/08 06:10:03;;;;;;;;;;;;;;;15.60;77.95;100466.03;5047957;28;19925;-77
2022/06/08 06:12:29;;;;;;;;;;;;;;;15.64;78.59;100469.38;5048098;28;19925;-77
2022/06/08 06:14:54;;;;;;;;;;;;;;;15.63;78.43;100471.13;5041701;28;19913;-77
2022/06/08 06:17:19;;;;;;;;;;;;;;;15.68;78.75;100469.19;5030779;28;19935;-77
2022/06/08 06:19:45;;;;;;;;;;;;;;;15.67;78.02;100470.09;5079072;28;19963;-77
2022/06/08 06:22:10;;;;;;;;;;;;;;;15.72;79.01;100467.28;5054694;28;19936;-77
2022/06/08 06:24:35;;;;;;;;;;;;;;;15.70;79.65;100464.72;5045619;28;19953;-77
2022/06/08 06:27:01;;;;;;;;;;;;;;;15.72;78.94;100469.88;5055981;28;19916;-77
2022/06/08 06:29:26;;;;;;;;;;;;;;;15.74;78.95;100470.66;5060627;28;19921;-77
2022/06/08 06:31:54;;;;;;;;;;;;;;;15.78;79.16;100469.59;5053115;28;20007;-77
2022/06/08 06:34:22;;;;;;;;;;;;;;;15.75;75.83;100470.59;5057930;28;19932;-77
2022/06/08 06:36:47;;;;;;;;;;;;;;;15.82;78.15;100463.31;5053452;28;19948;-77
2022/06/08 06:39:13;;;;;;;;;;;;;;;15.81;78.06;100457.22;5050856;28;20443;-77
2022/06/08 06:41:38;;;;;;;;;;;;;;;15.77;79.38;100458.31;5058877;28;20438;-77
2022/06/08 06:44:04;;;;;;;;;;;;;;;15.78;78.52;100459.97;5073512;28;19921;-77
2022/06/08 06:46:29;;;;;;;;;;;;;;;15.85;77.81;100452.69;5058758;28;19920;-75
2022/06/08 06:48:55;;;;;;;;;;;;;;;15.78;73.92;100454.75;5053323;28;19917;-76
2022/06/08 06:51:20;;;;;;;;;;;;;;;15.85;72.87;100450.06;5043343;28;20323;-76
2022/06/08 06:53:45;;;;;;;;;;;;;;;15.92;76.69;100451.50;5049573;28;19931;-76
2022/06/08 06:56:12;;;;;;;;;;;;;;;15.95;79.33;100464.44;5023907;28;19921;-76
2022/06/08 06:58:38;;;;;;;;;;;;;;;15.92;79.03;100461.97;5046782;28;19920;-76
2022/06/08 07:01:03;;;;;;;;;;;;;;;15.95;78.58;100461.81;5030115;28;20129;-76
2022/06/08 07:03:29;;;;;;;;;;;;;;;15.91;73.99;100457.63;5057543;28;19927;-76
2022/06/08 07:05:55;;;;;;;;;;;;;;;15.93;77.11;100454.03;5049331;28;19924;-76
2022/06/08 07:08:20;;;;;;;;;;;;;;;15.94;77.30;100454.88;5038733;28;19925;-82
2022/06/08 07:11:32;;;;;;;;;;;;;;;15.93;77.40;100459.25;5037728;28;19925;-81
2022/06/08 07:13:31;;;;;;;;;;;;;;;15.98;77.21;100453.81;5048052;28;20558;-80
2022/06/08 07:15:56;;;;;;;;;;;;;;;15.96;77.46;100446.00;5047853;28;19929;-80
2022/06/08 07:18:21;;;;;;;;;;;;;;;15.97;78.48;100441.63;5034137;28;20021;-80
2022/06/08 07:20:47;;;;;;;;;;;;;;;15.96;77.90;100439.91;5052053;28;19924;-80
2022/06/08 07:23:12;;;;;;;;;;;;;;;16.01;78.68;100439.72;5047318;28;19951;-80
2022/06/08 07:25:37;;;;;;;;;;;;;;;16.01;78.54;100437.09;5056821;28;20023;-80
2022/06/08 07:28:03;;;;;;;;;;;;;;;16.01;78.46;100429.22;5042867;28;19925;-80
2022/06/08 07:30:28;;;;;;;;;;;;;;;15.99;77.40;100431.91;5025716;28;19928;-81
2022/06/08 07:32:53;;;;;;;;;;;;;;;16.05;76.91;100428.13;5055509;28;19921;-81
2022/06/08 07:35:19;;;;;;;;;;;;;;;16.01;78.05;100424.84;5050257;28;19928;-81
2022/06/08 07:37:44;;;;;;;;;;;;;;;16.06;77.60;100424.59;5044220;28;19929;-81
2022/06/08 07:40:10;;;;;;;;;;;;;;;16.10;78.81;100424.41;5044936;28;19940;-80
2022/06/08 07:42:37;;;;;;;;;;;;;;;16.11;77.75;100412.13;5042183;28;19963;-80
2022/06/08 07:45:03;;;;;;;;;;;;;;;16.12;79.13;100416.44;5036581;28;20000;-80
2022/06/08 07:47:28;;;;;;;;;;;;;;;16.15;78.25;100405.81;5043355;28;19928;-79
2022/06/08 07:49:54;;;;;;;;;;;;;;;16.14;77.70;100409.34;5055021;28;19925;-78
2022/06/08 07:52:20;;;;;;;;;;;;;;;16.15;78.47;100408.44;5046453;28;20499;-79
2022/06/08 07:54:47;;;;;;;;;;;;;;;16.18;78.42;100417.00;5037201;28;19921;-79
2022/06/08 07:57:20;;;;;;;;;;;;;;;16.16;76.27;100407.53;5040587;28;20105;-79
2022/06/08 07:59:46;;;;;;;;;;;;;;;16.20;77.79;100406.44;5035926;28;20018;-79
2022/06/08 08:02:12;;;;;;;;;;;;;;;16.21;78.51;100403.75;5036616;28;20067;-78
2022/06/08 08:04:37;;;;;;;;;;;;;;;16.21;78.63;100400.28;5037257;28;19925;-79
2022/06/08 08:07:03;;;;;;;;;;;;;;;16.24;78.77;100397.50;5044440;28;19928;-79
2022/06/08 08:09:31;;;;;;;;;;;;;;;16.19;77.57;100396.88;5046054;28;20043;-79
2022/06/08 08:11:57;;;;;;;;;;;;;;;16.23;78.65;100399.25;5028091;28;19917;-82
2022/06/08 08:14:23;;;;;;;;;;;;;;;16.22;77.26;100396.75;5046272;28;19924;-82
2022/06/08 08:16:51;;;;;;;;;;;;;;;16.17;72.93;100396.94;5038539;28;20398;-82
2022/06/08 08:19:18;;;;;;;;;;;;;;;16.22;74.08;100394.13;5042434;28;20382;-82
2022/06/08 08:21:44;;;;;;;;;;;;;;;16.23;75.35;100388.78;5035651;28;19928;-81
2022/06/08 08:24:09;;;;;;;;;;;;;;;16.26;76.17;100386.00;5038703;28;19963;-81
2022/06/08 08:26:35;;;;;;;;;;;;;;;16.29;77.37;100388.47;5040319;28;19923;-78
2022/06/08 08:29:00;;;;;;;;;;;;;;;16.28;78.39;100386.81;5044832;28;19991;-79
2022/06/08 08:31:26;;;;;;;;;;;;;;;16.24;76.67;100385.25;5033699;28;19929;-78
2022/06/08 08:33:51;;;;;;;;;;;;;;;16.25;77.13;100379.09;5042592;28;19921;-78
2022/06/08 08:36:17;;;;;;;;;;;;;;;16.23;75.81;100370.44;5042269;28;19972;-79
2022/06/08 08:38:43;;;;;;;;;;;;;;;16.26;75.83;100369.44;5045459;28;20004;-80
2022/06/08 08:42:20;;;;;;;;;;;;;;;16.23;72.01;100377.44;5045915;28;20015;-80
2022/06/08 08:43:55;;;;;;;;;;;;;;;16.29;75.98;100364.88;5048932;28;19931;-80
2022/06/08 08:46:37;;;;;;;;;;;;;;;16.24;73.22;100361.66;5053436;28;19924;-80
2022/06/08 08:49:06;;;;;;;;;;;;;;;16.31;75.35;100356.97;5052010;28;20027;-80
2022/06/08 08:51:36;;;;;;;;;;;;;;;16.28;73.19;100349.25;5041583;28;20394;-80
2022/06/08 08:54:04;;;;;;;;;;;;;;;16.19;69.07;100349.72;5041930;28;20389;-80
2022/06/08 08:56:37;;;;;;;;;;;;;;;16.30;75.59;100352.63;5045504;28;19936;-80
2022/06/08 08:59:10;;;;;;;;;;;;;;;16.48;75.62;100346.44;5051943;28;19996;-79
2022/06/08 09:01:38;;;;;;;;;;;;;;;16.36;73.09;100337.44;5049475;28;19925;-79
2022/06/08 09:04:12;;;;;;;;;;;;;;;16.46;73.61;100343.88;5045990;28;19920;-79
2022/06/08 09:06:39;;;;;;;;;;;;;;;16.51;71.99;100331.41;5048286;28;19916;-79
2022/06/08 09:09:09;;;;;;;;;;;;;;;16.63;71.62;100332.53;5044666;28;19924;-78
2022/06/08 09:11:39;;;;;;;;;;;;;;;16.66;71.94;100334.16;5045677;28;19921;-78
2022/06/08 09:14:07;;;;;;;;;;;;;;;16.72;70.99;100332.09;5028619;28;19932;-80
2022/06/08 09:16:39;;;;;;;;;;;;;;;16.64;68.61;100326.34;5039417;28;20002;-80
2022/06/08 09:19:23;;;;;;;;;;;;;;;16.75;68.86;100318.81;5045044;28;19924;-80
2022/06/08 09:21:53;;;;;;;;;;;;;;;16.54;67.81;100317.28;5029679;28;19947;-80
2022/06/08 09:24:30;;;;;;;;;;;;;;;16.68;70.79;100314.78;5044634;28;19932;-80
2022/06/08 09:26:57;;;;;;;;;;;;;;;16.55;67.87;100311.09;5042299;28;19921;-80
2022/06/08 09:29:26;;;;;;;;;;;;;;;16.53;68.31;100318.22;5044811;28;20726;-79
2022/06/08 09:31:52;;;;;;;;;;;;;;;16.57;67.40;100317.13;5043556;28;19931;-80
2022/06/08 09:34:18;;;;;;;;;;;;;;;16.59;68.79;100317.03;5046626;28;19925;-80
2022/06/08 09:36:44;;;;;;;;;;;;;;;16.61;67.44;100305.53;5049052;28;20417;-80
2022/06/08 09:39:14;;;;;;;;;;;;;;;16.61;67.73;100313.41;5051308;28;20510;-80
2022/06/08 09:41:44;;;;;;;;;;;;;;;16.63;67.17;100315.94;5050276;28;20093;-80
2022/06/08 09:44:18;;;;;;;;;;;;;;;16.65;67.22;100317.56;5038088;28;19921;-80
2022/06/08 09:52:53;;;;;;;;;;;;;;;16.73;68.22;100309.34;5045432;28;19948;-82
2022/06/08 09:55:37;;;;;;;;;;;;;;;16.60;68.23;100311.72;5038284;28;19925;-81
2022/06/08 09:58:29;;;;;;;;;;;;;;;16.70;67.11;100307.69;5048649;28;19933;-82
2022/06/08 10:01:34;;;;;;;;;;;;;;;16.69;67.60;100308.66;5051758;28;19920;-82
2022/06/08 10:04:18;;;;;;;;;;;;;;;16.70;67.60;100314.75;5007973;28;19925;-82
2022/06/08 10:06:59;;;;;;;;;;;;;;;16.72;67.85;100307.63;5003286;28;19925;-77
2022/06/08 10:09:25;;;;;;;;;;;;;;;16.63;67.99;100310.72;5042886;28;20636;-77
2022/06/08 10:12:01;;;;;;;;;;;;;;;16.65;67.67;100303.59;5047322;28;20117;-78
2022/06/08 10:14:45;;;;;;;;;;;;;;;16.85;68.64;100313.88;5039397;28;20392;-78
2022/06/08 10:17:16;;;;;;;;;;;;;;;16.84;68.59;100310.44;5041438;28;19929;-78
2022/06/08 10:19:47;;;;;;;;;;;;;;;16.88;67.97;100311.97;5039882;28;19932;-76
2022/06/08 10:22:13;;;;;;;;;;;;;;;16.84;66.76;100306.97;5053463;28;19928;-76
2022/06/08 10:24:45;;;;;;;;;;;;;;;16.82;66.84;100309.66;5053819;28;19974;-76
2022/06/08 10:27:15;;;;;;;;;;;;;;;16.85;67.15;100306.88;5045389;28;20586;-76
2022/06/08 10:29:42;;;;;;;;;;;;;;;16.92;66.58;100302.16;5045148;28;19920;-76
2022/06/08 10:32:14;;;;;;;;;;;;;;;16.80;66.41;100300.19;5039118;28;19972;-76
2022/06/08 10:34:39;;;;;;;;;;;;;;;16.74;65.14;100303.13;5059242;28;19925;-76
2022/06/08 10:37:23;;;;;;;;;;;;;;;16.81;65.64;100292.25;5052237;28;19929;-76
2022/06/08 10:39:49;;;;;;;;;;;;;;;16.84;69.31;100304.34;5043078;28;19971;-77
2022/06/08 10:44:59;;;;;;;;;;;;;;;16.53;77.31;100316.44;5047134;28;19996;-76
2022/06/08 10:47:29;;;;;;;;;;;;;;;16.49;75.87;100335.03;5049823;28;20007;-76
2022/06/08 10:49:58;;;;;;;;;;;;;;;16.39;76.95;100333.81;5044916;28;20306;-76
2022/06/08 10:52:23;;;;;;;;;;;;;;;16.27;77.80;100337.06;5047050;28;19944;-77
2022/06/08 10:54:55;;;;;;;;;;;;;;;16.31;76.89;100333.38;5048162;28;19940;-77
2022/06/08 10:57:36;;;;;;;;;;;;;;;16.36;77.47;100340.06;5039886;28;20027;-77
2022/06/08 11:00:28;;;;;;;;;;;;;;;16.19;76.04;100344.47;5040427;28;19917;-76
2022/06/08 11:02:53;;;;;;;;;;;;;;;16.20;77.91;100348.78;5039445;28;20015;-76
2022/06/08 11:05:30;;;;;;;;;;;;;;;16.12;78.64;100349.16;5037492;28;20024;-76
2022/06/08 11:07:59;;;;;;;;;;;;;;;16.28;79.08;100346.63;5040607;28;20713;-77
2022/06/08 11:10:54;;;;;;;;;;;;;;;16.28;78.45;100347.50;5041554;28;19951;-77
2022/06/08 11:13:22;;;;;;;;;;;;;;;16.31;79.37;100342.06;5039745;28;20337;-77
2022/06/08 11:15:56;;;;;;;;;;;;;;;16.38;79.52;100337.34;5030664;28;20012;-77
2022/06/08 11:18:24;;;;;;;;;;;;;;;16.39;79.46;100342.53;5040112;28;19924;-77
2022/06/08 11:20:56;;;;;;;;;;;;;;;16.38;79.38;100319.00;5043351;28;19918;-77
2022/06/08 11:23:27;;;;;;;;;;;;;;;16.37;79.56;100320.78;5045490;28;19925;-77
2022/06/08 11:26:07;;;;;;;;;;;;;;;16.40;80.27;100315.38;5043195;28;19924;-77
2022/06/08 11:28:35;;;;;;;;;;;;;;;16.41;80.19;100326.72;5046913;28;19936;-77
2022/06/08 11:31:01;;;;;;;;;;;;;;;16.44;80.73;100316.91;5044399;28;20471;-77
2022/06/08 11:33:47;;;;;;;;;;;;;;;16.47;79.90;100324.63;5045037;28;19953;-77
2022/06/08 11:36:20;;;;;;;;;;;;;;;16.53;80.40;100321.69;5041729;28;19978;-77
2022/06/08 11:38:45;;;;;;;;;;;;;;;16.57;79.42;100313.66;5044946;28;19928;-77
2022/06/08 11:41:23;;;;;;;;;;;;;;;16.60;80.68;100316.13;5037773;28;19924;-77
2022/06/08 11:43:49;;;;;;;;;;;;;;;16.59;79.58;100315.25;5041715;28;20638;-77
2022/06/08 11:46:28;;;;;;;;;;;;;;;16.54;77.99;100319.91;5040863;28;19928;-77
2022/06/08 11:48:54;;;;;;;;;;;;;;;16.59;79.48;100303.91;5024760;28;19929;-77
2022/06/08 11:51:30;;;;;;;;;;;;;;;16.64;80.66;100304.53;5040532;28;19924;-77
2022/06/08 11:53:58;;;;;;;;;;;;;;;16.59;79.58;100309.16;5043236;28;19912;-77
2022/06/08 11:56:29;;;;;;;;;;;;;;;16.55;80.17;100310.28;5053870;28;19929;-77
2022/06/08 11:58:56;;;;;;;;;;;;;;;16.57;78.55;100305.78;5040447;28;20283;-77
2022/06/08 12:01:23;;;;;;;;;;;;;;;16.59;79.83;100301.28;5047614;28;19936;-77
2022/06/08 12:03:57;;;;;;;;;;;;;;;16.57;77.79;100293.53;5065518;28;19924;-77
2022/06/08 12:06:24;;;;;;;;;;;;;;;16.54;77.30;100293.69;5040128;28;20059;-76
2022/06/08 12:08:56;;;;;;;;;;;;;;;16.53;78.44;100298.09;5045101;28;19948;-76
2022/06/08 12:11:23;;;;;;;;;;;;;;;16.56;76.83;100291.81;5052350;28;19971;-76
2022/06/08 12:13:53;;;;;;;;;;;;;;;16.58;78.52;100302.25;5046078;28;19935;-77
2022/06/08 12:16:30;;;;;;;;;;;;;;;16.58;79.22;100299.63;5035165;28;19955;-77
2022/06/08 12:19:00;;;;;;;;;;;;;;;16.52;77.34;100290.31;5044025;28;20298;-77
2022/06/08 12:21:30;;;;;;;;;;;;;;;16.51;77.61;100291.22;5053384;28;19917;-77
2022/06/08 12:24:01;;;;;;;;;;;;;;;16.51;78.03;100292.09;5038970;28;20297;-77
2022/06/08 12:26:35;;;;;;;;;;;;;;;16.55;78.60;100294.53;5043155;28;19921;-77
2022/06/08 12:29:05;;;;;;;;;;;;;;;16.58;79.66;100286.50;5056708;28;22434;-76
2022/06/08 12:31:31;;;;;;;;;;;;;;;16.60;79.97;100287.25;5046764;28;19921;-77
2022/06/08 12:33:57;;;;;;;;;;;;;;;16.60;79.66;100279.41;5059138;28;19927;-77
2022/06/08 12:36:30;;;;;;;;;;;;;;;16.53;79.17;100281.50;5055059;28;19921;-77
2022/06/08 12:39:15;;;;;;;;;;;;;;;16.56;76.36;100288.34;5047809;28;19921;-77
2022/06/08 12:41:48;;;;;;;;;;;;;;;16.61;76.93;100279.31;5044605;28;20283;-77
2022/06/08 12:44:16;;;;;;;;;;;;;;;16.62;78.67;100286.25;5036946;28;19929;-77
2022/06/08 12:46:49;;;;;;;;;;;;;;;16.58;77.75;100282.09;5045346;28;20514;-76
2022/06/08 12:49:16;;;;;;;;;;;;;;;16.64;78.96;100279.13;5047674;28;19956;-76
2022/06/08 12:51:44;;;;;;;;;;;;;;;16.62;78.68;100278.38;5037934;28;22490;-76
2022/06/08 12:54:12;;;;;;;;;;;;;;;16.63;79.49;100279.25;5042217;28;20348;-77
2022/06/08 12:56:38;;;;;;;;;;;;;;;16.60;78.01;100272.38;5044529;28;20023;-76